sensor_id;sensor_type;location;lat;lon;timestamp;P1;durP1;ratioP1;P2;durP2;ratioP2
72813;SDS011;60945;48.516;-2.768;2022-12-18T00:01:04;16.40;;;9.25;;
72813;SDS011;60945;48.516;-2.768;2022-12-18T00:03:38;24.92;;;11.57;;
72813;SDS011;60945;48.516;-2.768;2022-12-18T00:06:06;21.38;;;12.18;;
72813;SDS011;60945;48.516;-2.768;2022-12-18T00:08:31;19.02;;;9.07;;
72813;SDS011;60945;48.516;-2.768;2022-12-18T00:11:02;19.67;;;11.10;;
72813;SDS011;60945;48.516;-2.768;2022-12-18T00:13:32;21.73;;;11.25;;
72813;SDS011;60945;48.516;-2.768;2022-12-18T00:16:05;21.88;;;11.15;;
72813;SDS011;60945;48.516;-2.768;2022-12-18T00:18:35;20.80;;;11.75;;
72813;SDS011;60945;48.516;-2.768;2022-12-18T00:21:01;21.00;;;10.75;;
72813;SDS011;60945;48.516;-2.768;2022-12-18T00:23:28;19.63;;;9.52;;
72813;SDS011;60945;48.516;-2.768;2022-12-18T00:25:55;23.45;;;11.55;;
72813;SDS011;60945;48.516;-2.768;2022-12-18T00:28:24;21.45;;;10.63;;
72813;SDS011;60945;48.516;-2.768;2022-12-18T00:30:50;23.23;;;12.73;;
72813;SDS011;60945;48.516;-2.768;2022-12-18T00:33:16;22.73;;;11.40;;
72813;SDS011;60945;48.516;-2.768;2022-12-18T00:35:43;24.88;;;11.85;;
72813;SDS011;60945;48.516;-2.768;2022-12-18T00:38:08;21.77;;;12.13;;
72813;SDS011;60945;48.516;-2.768;2022-12-18T00:40:34;19.02;;;11.32;;
72813;SDS011;60945;48.516;-2.768;2022-12-18T00:42:59;19.77;;;11.82;;
72813;SDS011;60945;48.516;-2.768;2022-12-18T00:45:31;23.42;;;10.85;;
72813;SDS011;60945;48.516;-2.768;2022-12-18T00:47:56;22.50;;;12.15;;
72813;SDS011;60945;48.516;-2.768;2022-12-18T00:50:23;21.45;;;10.75;;
72813;SDS011;60945;48.516;-2.768;2022-12-18T00:52:49;25.10;;;11.57;;
72813;SDS011;60945;48.516;-2.768;2022-12-18T00:55:15;22.98;;;12.00;;
72813;SDS011;60945;48.516;-2.768;2022-12-18T00:57:41;21.08;;;11.05;;
72813;SDS011;60945;48.516;-2.768;2022-12-18T01:00:10;21.52;;;10.98;;
72813;SDS011;60945;48.516;-2.768;2022-12-18T01:02:38;25.02;;;11.32;;
72813;SDS011;60945;48.516;-2.768;2022-12-18T01:05:05;22.05;;;11.38;;
72813;SDS011;60945;48.516;-2.768;2022-12-18T01:07:32;21.52;;;9.63;;
72813;SDS011;60945;48.516;-2.768;2022-12-18T01:09:57;20.05;;;11.30;;
72813;SDS011;60945;48.516;-2.768;2022-12-18T01:12:23;20.17;;;11.13;;
72813;SDS011;60945;48.516;-2.768;2022-12-18T01:14:49;19.88;;;10.27;;
72813;SDS011;60945;48.516;-2.768;2022-12-18T01:17:14;21.90;;;11.20;;
72813;SDS011;60945;48.516;-2.768;2022-12-18T01:19:40;22.02;;;11.07;;
72813;SDS011;60945;48.516;-2.768;2022-12-18T01:22:05;22.17;;;11.10;;
72813;SDS011;60945;48.516;-2.768;2022-12-18T01:24:33;21.15;;;11.50;;
72813;SDS011;60945;48.516;-2.768;2022-12-18T01:26:59;18.38;;;9.50;;
72813;SDS011;60945;48.516;-2.768;2022-12-18T01:29:25;21.58;;;11.27;;
72813;SDS011;60945;48.516;-2.768;2022-12-18T01:31:50;24.02;;;11.40;;
72813;SDS011;60945;48.516;-2.768;2022-12-18T01:34:16;22.80;;;11.15;;
72813;SDS011;60945;48.516;-2.768;2022-12-18T01:36:42;21.75;;;11.38;;
72813;SDS011;60945;48.516;-2.768;2022-12-18T01:39:10;19.67;;;10.43;;
72813;SDS011;60945;48.516;-2.768;2022-12-18T01:41:36;20.55;;;11.02;;
72813;SDS011;60945;48.516;-2.768;2022-12-18T01:49:57;15.95;;;9.25;;
72813;SDS011;60945;48.516;-2.768;2022-12-18T01:52:29;19.88;;;10.43;;
72813;SDS011;60945;48.516;-2.768;2022-12-18T01:54:57;18.70;;;9.10;;
72813;SDS011;60945;48.516;-2.768;2022-12-18T01:57:25;25.70;;;12.15;;
72813;SDS011;60945;48.516;-2.768;2022-12-18T01:59:53;23.65;;;12.63;;
72813;SDS011;60945;48.516;-2.768;2022-12-18T02:02:22;18.98;;;10.45;;
72813;SDS011;60945;48.516;-2.768;2022-12-18T02:04:48;25.42;;;11.90;;
72813;SDS011;60945;48.516;-2.768;2022-12-18T02:09:58;21.80;;;11.63;;
72813;SDS011;60945;48.516;-2.768;2022-12-18T02:15:28;22.48;;;10.60;;
72813;SDS011;60945;48.516;-2.768;2022-12-18T02:18:10;17.20;;;10.00;;
72813;SDS011;60945;48.516;-2.768;2022-12-18T02:21:45;23.73;;;11.52;;
72813;SDS011;60945;48.516;-2.768;2022-12-18T02:23:39;19.38;;;10.38;;
72813;SDS011;60945;48.516;-2.768;2022-12-18T02:31:23;19.08;;;10.68;;
72813;SDS011;60945;48.516;-2.768;2022-12-18T02:33:53;20.60;;;11.23;;
72813;SDS011;60945;48.516;-2.768;2022-12-18T02:36:25;25.05;;;12.43;;
72813;SDS011;60945;48.516;-2.768;2022-12-18T02:38:53;23.08;;;12.05;;
72813;SDS011;60945;48.516;-2.768;2022-12-18T02:41:23;19.17;;;10.63;;
72813;SDS011;60945;48.516;-2.768;2022-12-18T02:43:52;22.00;;;11.10;;
72813;SDS011;60945;48.516;-2.768;2022-12-18T02:46:28;20.63;;;11.18;;
72813;SDS011;60945;48.516;-2.768;2022-12-18T02:57:35;20.80;;;9.98;;
72813;SDS011;60945;48.516;-2.768;2022-12-18T03:00:21;23.40;;;10.95;;
72813;SDS011;60945;48.516;-2.768;2022-12-18T03:02:55;23.42;;;11.38;;
72813;SDS011;60945;48.516;-2.768;2022-12-18T03:05:30;15.88;;;9.05;;
72813;SDS011;60945;48.516;-2.768;2022-12-18T03:08:07;22.65;;;11.10;;
72813;SDS011;60945;48.516;-2.768;2022-12-18T03:10:38;20.30;;;11.20;;
72813;SDS011;60945;48.516;-2.768;2022-12-18T03:13:09;21.13;;;10.38;;
72813;SDS011;60945;48.516;-2.768;2022-12-18T03:15:57;17.63;;;11.77;;
72813;SDS011;60945;48.516;-2.768;2022-12-18T03:18:25;22.15;;;12.18;;
72813;SDS011;60945;48.516;-2.768;2022-12-18T03:21:00;22.83;;;12.23;;
72813;SDS011;60945;48.516;-2.768;2022-12-18T03:23:31;21.67;;;11.98;;
72813;SDS011;60945;48.516;-2.768;2022-12-18T03:26:01;19.48;;;10.95;;
72813;SDS011;60945;48.516;-2.768;2022-12-18T03:28:33;21.60;;;12.13;;
72813;SDS011;60945;48.516;-2.768;2022-12-18T03:31:04;21.97;;;11.37;;
72813;SDS011;60945;48.516;-2.768;2022-12-18T03:36:15;21.77;;;12.15;;
72813;SDS011;60945;48.516;-2.768;2022-12-18T03:38:41;24.52;;;11.57;;
72813;SDS011;60945;48.516;-2.768;2022-12-18T03:41:18;23.30;;;11.68;;
72813;SDS011;60945;48.516;-2.768;2022-12-18T03:43:49;22.58;;;11.43;;
72813;SDS011;60945;48.516;-2.768;2022-12-18T03:49:06;21.10;;;11.95;;
72813;SDS011;60945;48.516;-2.768;2022-12-18T03:51:39;22.52;;;11.07;;
72813;SDS011;60945;48.516;-2.768;2022-12-18T03:54:17;19.73;;;11.13;;
72813;SDS011;60945;48.516;-2.768;2022-12-18T03:56:49;20.92;;;12.23;;
72813;SDS011;60945;48.516;-2.768;2022-12-18T03:59:29;20.42;;;10.98;;
72813;SDS011;60945;48.516;-2.768;2022-12-18T04:01:56;23.08;;;12.75;;
72813;SDS011;60945;48.516;-2.768;2022-12-18T04:04:24;18.63;;;11.05;;
72813;SDS011;60945;48.516;-2.768;2022-12-18T04:06:52;20.40;;;11.45;;
72813;SDS011;60945;48.516;-2.768;2022-12-18T04:09:19;21.10;;;11.88;;
72813;SDS011;60945;48.516;-2.768;2022-12-18T04:11:45;19.65;;;11.45;;
72813;SDS011;60945;48.516;-2.768;2022-12-18T04:14:12;20.50;;;11.75;;
72813;SDS011;60945;48.516;-2.768;2022-12-18T04:16:38;22.50;;;12.65;;
72813;SDS011;60945;48.516;-2.768;2022-12-18T04:19:03;24.17;;;12.63;;
72813;SDS011;60945;48.516;-2.768;2022-12-18T04:21:29;21.70;;;12.52;;
72813;SDS011;60945;48.516;-2.768;2022-12-18T04:23:55;22.90;;;11.35;;
72813;SDS011;60945;48.516;-2.768;2022-12-18T04:26:21;21.98;;;12.65;;
72813;SDS011;60945;48.516;-2.768;2022-12-18T04:28:47;24.35;;;13.10;;
72813;SDS011;60945;48.516;-2.768;2022-12-18T04:31:12;21.48;;;11.70;;
72813;SDS011;60945;48.516;-2.768;2022-12-18T04:33:38;22.05;;;12.13;;
72813;SDS011;60945;48.516;-2.768;2022-12-18T04:36:04;20.33;;;11.43;;
72813;SDS011;60945;48.516;-2.768;2022-12-18T04:38:30;21.23;;;11.73;;
72813;SDS011;60945;48.516;-2.768;2022-12-18T04:40:55;21.17;;;11.50;;
72813;SDS011;60945;48.516;-2.768;2022-12-18T04:43:21;17.40;;;10.38;;
72813;SDS011;60945;48.516;-2.768;2022-12-18T04:45:46;20.60;;;12.15;;
72813;SDS011;60945;48.516;-2.768;2022-12-18T04:48:12;22.83;;;12.45;;
72813;SDS011;60945;48.516;-2.768;2022-12-18T04:50:38;19.20;;;11.27;;
72813;SDS011;60945;48.516;-2.768;2022-12-18T04:53:03;18.25;;;8.95;;
72813;SDS011;60945;48.516;-2.768;2022-12-18T04:55:29;20.25;;;12.45;;
72813;SDS011;60945;48.516;-2.768;2022-12-18T04:57:55;24.00;;;12.48;;
72813;SDS011;60945;48.516;-2.768;2022-12-18T05:00:21;18.85;;;11.95;;
72813;SDS011;60945;48.516;-2.768;2022-12-18T05:02:47;19.20;;;9.90;;
72813;SDS011;60945;48.516;-2.768;2022-12-18T05:05:13;23.27;;;11.10;;
72813;SDS011;60945;48.516;-2.768;2022-12-18T05:07:38;22.73;;;11.50;;
72813;SDS011;60945;48.516;-2.768;2022-12-18T05:10:07;23.52;;;11.93;;
72813;SDS011;60945;48.516;-2.768;2022-12-18T05:12:33;21.90;;;11.82;;
72813;SDS011;60945;48.516;-2.768;2022-12-18T05:14:59;24.10;;;12.48;;
72813;SDS011;60945;48.516;-2.768;2022-12-18T05:17:24;25.52;;;12.15;;
72813;SDS011;60945;48.516;-2.768;2022-12-18T05:19:50;20.55;;;10.50;;
72813;SDS011;60945;48.516;-2.768;2022-12-18T05:22:15;27.25;;;11.65;;
72813;SDS011;60945;48.516;-2.768;2022-12-18T05:24:41;27.80;;;13.10;;
72813;SDS011;60945;48.516;-2.768;2022-12-18T05:27:07;23.77;;;10.85;;
72813;SDS011;60945;48.516;-2.768;2022-12-18T05:29:32;29.05;;;13.63;;
72813;SDS011;60945;48.516;-2.768;2022-12-18T05:31:58;25.02;;;12.00;;
72813;SDS011;60945;48.516;-2.768;2022-12-18T05:34:23;20.23;;;10.98;;
72813;SDS011;60945;48.516;-2.768;2022-12-18T05:36:49;20.85;;;12.32;;
72813;SDS011;60945;48.516;-2.768;2022-12-18T05:39:14;23.35;;;11.77;;
72813;SDS011;60945;48.516;-2.768;2022-12-18T05:41:40;25.35;;;11.88;;
72813;SDS011;60945;48.516;-2.768;2022-12-18T05:44:06;24.27;;;11.98;;
72813;SDS011;60945;48.516;-2.768;2022-12-18T05:46:31;20.40;;;11.70;;
72813;SDS011;60945;48.516;-2.768;2022-12-18T05:48:59;23.15;;;12.57;;
72813;SDS011;60945;48.516;-2.768;2022-12-18T05:51:26;24.15;;;11.30;;
72813;SDS011;60945;48.516;-2.768;2022-12-18T05:53:52;20.88;;;10.18;;
72813;SDS011;60945;48.516;-2.768;2022-12-18T05:56:19;21.95;;;12.60;;
72813;SDS011;60945;48.516;-2.768;2022-12-18T05:58:46;22.17;;;11.30;;
72813;SDS011;60945;48.516;-2.768;2022-12-18T06:01:15;24.67;;;11.60;;
72813;SDS011;60945;48.516;-2.768;2022-12-18T06:03:43;23.17;;;12.48;;
72813;SDS011;60945;48.516;-2.768;2022-12-18T06:06:22;23.80;;;12.80;;
72813;SDS011;60945;48.516;-2.768;2022-12-18T06:08:49;25.20;;;12.70;;
72813;SDS011;60945;48.516;-2.768;2022-12-18T06:11:18;23.67;;;12.73;;
72813;SDS011;60945;48.516;-2.768;2022-12-18T06:13:52;22.35;;;11.95;;
72813;SDS011;60945;48.516;-2.768;2022-12-18T06:16:19;25.25;;;13.43;;
72813;SDS011;60945;48.516;-2.768;2022-12-18T06:18:45;22.90;;;12.05;;
72813;SDS011;60945;48.516;-2.768;2022-12-18T06:21:11;19.00;;;10.68;;
72813;SDS011;60945;48.516;-2.768;2022-12-18T06:23:38;25.65;;;12.23;;
72813;SDS011;60945;48.516;-2.768;2022-12-18T06:26:10;20.55;;;10.00;;
72813;SDS011;60945;48.516;-2.768;2022-12-18T06:28:37;20.60;;;12.23;;
72813;SDS011;60945;48.516;-2.768;2022-12-18T06:31:03;23.02;;;11.60;;
72813;SDS011;60945;48.516;-2.768;2022-12-18T06:33:29;24.45;;;12.55;;
72813;SDS011;60945;48.516;-2.768;2022-12-18T06:36:08;25.13;;;12.20;;
72813;SDS011;60945;48.516;-2.768;2022-12-18T06:38:36;25.42;;;12.68;;
72813;SDS011;60945;48.516;-2.768;2022-12-18T06:41:10;24.95;;;11.80;;
72813;SDS011;60945;48.516;-2.768;2022-12-18T06:43:37;23.08;;;13.60;;
72813;SDS011;60945;48.516;-2.768;2022-12-18T06:46:03;21.73;;;12.13;;
72813;SDS011;60945;48.516;-2.768;2022-12-18T06:48:29;21.88;;;11.82;;
72813;SDS011;60945;48.516;-2.768;2022-12-18T06:50:58;20.65;;;11.63;;
72813;SDS011;60945;48.516;-2.768;2022-12-18T06:53:24;23.30;;;11.40;;
72813;SDS011;60945;48.516;-2.768;2022-12-18T06:55:50;17.13;;;8.90;;
72813;SDS011;60945;48.516;-2.768;2022-12-18T06:58:16;18.42;;;10.27;;
72813;SDS011;60945;48.516;-2.768;2022-12-18T07:00:42;20.73;;;10.50;;
72813;SDS011;60945;48.516;-2.768;2022-12-18T07:03:08;19.02;;;10.30;;
72813;SDS011;60945;48.516;-2.768;2022-12-18T07:05:33;19.85;;;10.20;;
72813;SDS011;60945;48.516;-2.768;2022-12-18T07:07:59;18.92;;;9.95;;
72813;SDS011;60945;48.516;-2.768;2022-12-18T07:10:25;19.17;;;11.27;;
72813;SDS011;60945;48.516;-2.768;2022-12-18T07:12:50;22.27;;;11.20;;
72813;SDS011;60945;48.516;-2.768;2022-12-18T07:15:16;18.88;;;11.70;;
72813;SDS011;60945;48.516;-2.768;2022-12-18T07:17:42;16.77;;;10.13;;
72813;SDS011;60945;48.516;-2.768;2022-12-18T07:20:08;17.13;;;9.73;;
72813;SDS011;60945;48.516;-2.768;2022-12-18T07:22:34;19.20;;;10.07;;
72813;SDS011;60945;48.516;-2.768;2022-12-18T07:24:59;17.20;;;8.73;;
72813;SDS011;60945;48.516;-2.768;2022-12-18T07:27:25;17.98;;;9.43;;
72813;SDS011;60945;48.516;-2.768;2022-12-18T07:29:51;18.65;;;10.40;;
72813;SDS011;60945;48.516;-2.768;2022-12-18T07:32:16;19.35;;;10.45;;
72813;SDS011;60945;48.516;-2.768;2022-12-18T07:34:42;23.08;;;11.15;;
72813;SDS011;60945;48.516;-2.768;2022-12-18T07:37:07;16.95;;;8.93;;
72813;SDS011;60945;48.516;-2.768;2022-12-18T07:39:33;15.98;;;10.43;;
72813;SDS011;60945;48.516;-2.768;2022-12-18T07:41:59;14.48;;;8.77;;
72813;SDS011;60945;48.516;-2.768;2022-12-18T07:44:43;19.73;;;10.52;;
72813;SDS011;60945;48.516;-2.768;2022-12-18T07:47:08;14.73;;;9.20;;
72813;SDS011;60945;48.516;-2.768;2022-12-18T07:49:34;19.23;;;11.90;;
72813;SDS011;60945;48.516;-2.768;2022-12-18T07:51:59;17.42;;;10.15;;
72813;SDS011;60945;48.516;-2.768;2022-12-18T07:54:26;21.40;;;11.25;;
72813;SDS011;60945;48.516;-2.768;2022-12-18T07:56:54;15.93;;;10.23;;
72813;SDS011;60945;48.516;-2.768;2022-12-18T07:59:20;18.65;;;11.18;;
72813;SDS011;60945;48.516;-2.768;2022-12-18T08:01:46;20.52;;;9.85;;
72813;SDS011;60945;48.516;-2.768;2022-12-18T08:04:11;17.05;;;9.50;;
72813;SDS011;60945;48.516;-2.768;2022-12-18T08:06:37;17.10;;;8.98;;
72813;SDS011;60945;48.516;-2.768;2022-12-18T08:09:03;17.70;;;10.25;;
72813;SDS011;60945;48.516;-2.768;2022-12-18T08:11:28;15.82;;;10.13;;
72813;SDS011;60945;48.516;-2.768;2022-12-18T08:13:54;16.50;;;9.57;;
72813;SDS011;60945;48.516;-2.768;2022-12-18T08:16:21;11.70;;;6.90;;
72813;SDS011;60945;48.516;-2.768;2022-12-18T08:18:47;15.10;;;9.07;;
72813;SDS011;60945;48.516;-2.768;2022-12-18T08:21:14;16.02;;;8.77;;
72813;SDS011;60945;48.516;-2.768;2022-12-18T08:23:42;15.27;;;7.68;;
72813;SDS011;60945;48.516;-2.768;2022-12-18T08:26:08;11.32;;;7.82;;
72813;SDS011;60945;48.516;-2.768;2022-12-18T08:28:34;13.35;;;8.18;;
72813;SDS011;60945;48.516;-2.768;2022-12-18T08:31:00;13.63;;;8.82;;
72813;SDS011;60945;48.516;-2.768;2022-12-18T08:33:25;12.13;;;7.30;;
72813;SDS011;60945;48.516;-2.768;2022-12-18T08:35:51;12.20;;;6.95;;
72813;SDS011;60945;48.516;-2.768;2022-12-18T08:38:17;12.60;;;7.65;;
72813;SDS011;60945;48.516;-2.768;2022-12-18T08:40:43;11.15;;;7.15;;
72813;SDS011;60945;48.516;-2.768;2022-12-18T08:43:11;11.20;;;8.07;;
72813;SDS011;60945;48.516;-2.768;2022-12-18T08:45:55;11.15;;;6.93;;
72813;SDS011;60945;48.516;-2.768;2022-12-18T08:48:21;10.00;;;6.47;;
72813;SDS011;60945;48.516;-2.768;2022-12-18T08:50:54;10.00;;;5.90;;
72813;SDS011;60945;48.516;-2.768;2022-12-18T08:53:25;11.15;;;7.18;;
72813;SDS011;60945;48.516;-2.768;2022-12-18T08:55:52;9.10;;;6.10;;
72813;SDS011;60945;48.516;-2.768;2022-12-18T08:58:18;9.18;;;5.57;;
72813;SDS011;60945;48.516;-2.768;2022-12-18T09:00:47;8.70;;;5.95;;
72813;SDS011;60945;48.516;-2.768;2022-12-18T09:03:15;9.45;;;5.88;;
72813;SDS011;60945;48.516;-2.768;2022-12-18T09:05:42;9.40;;;4.85;;
72813;SDS011;60945;48.516;-2.768;2022-12-18T09:08:10;9.27;;;5.90;;
72813;SDS011;60945;48.516;-2.768;2022-12-18T09:10:45;7.65;;;4.05;;
72813;SDS011;60945;48.516;-2.768;2022-12-18T09:13:12;8.73;;;5.60;;
72813;SDS011;60945;48.516;-2.768;2022-12-18T09:15:42;10.35;;;6.07;;
72813;SDS011;60945;48.516;-2.768;2022-12-18T09:18:16;9.85;;;5.57;;
72813;SDS011;60945;48.516;-2.768;2022-12-18T09:20:43;7.05;;;3.92;;
72813;SDS011;60945;48.516;-2.768;2022-12-18T09:23:10;7.00;;;4.78;;
72813;SDS011;60945;48.516;-2.768;2022-12-18T09:25:36;7.88;;;5.18;;
72813;SDS011;60945;48.516;-2.768;2022-12-18T09:28:09;12.35;;;6.05;;
72813;SDS011;60945;48.516;-2.768;2022-12-18T09:30:44;10.88;;;5.65;;
72813;SDS011;60945;48.516;-2.768;2022-12-18T09:33:12;7.97;;;5.38;;
72813;SDS011;60945;48.516;-2.768;2022-12-18T09:35:39;8.73;;;5.57;;
72813;SDS011;60945;48.516;-2.768;2022-12-18T09:38:06;8.52;;;5.00;;
72813;SDS011;60945;48.516;-2.768;2022-12-18T09:40:39;8.38;;;5.63;;
72813;SDS011;60945;48.516;-2.768;2022-12-18T09:43:14;7.65;;;5.40;;
72813;SDS011;60945;48.516;-2.768;2022-12-18T09:46:08;9.05;;;5.00;;
72813;SDS011;60945;48.516;-2.768;2022-12-18T09:48:36;6.57;;;4.78;;
72813;SDS011;60945;48.516;-2.768;2022-12-18T09:51:17;5.82;;;4.00;;
72813;SDS011;60945;48.516;-2.768;2022-12-18T09:53:50;7.18;;;4.88;;
72813;SDS011;60945;48.516;-2.768;2022-12-18T09:56:20;7.88;;;4.90;;
72813;SDS011;60945;48.516;-2.768;2022-12-18T09:58:54;7.80;;;4.65;;
72813;SDS011;60945;48.516;-2.768;2022-12-18T10:03:48;6.72;;;4.10;;
72813;SDS011;60945;48.516;-2.768;2022-12-18T10:06:21;6.90;;;4.25;;
72813;SDS011;60945;48.516;-2.768;2022-12-18T10:09:20;6.38;;;3.97;;
72813;SDS011;60945;48.516;-2.768;2022-12-18T10:14:50;5.93;;;3.92;;
72813;SDS011;60945;48.516;-2.768;2022-12-18T10:20:16;6.60;;;4.13;;
72813;SDS011;60945;48.516;-2.768;2022-12-18T10:28:23;7.47;;;4.45;;
72813;SDS011;60945;48.516;-2.768;2022-12-18T10:30:50;8.15;;;4.88;;
72813;SDS011;60945;48.516;-2.768;2022-12-18T10:33:16;5.85;;;3.63;;
72813;SDS011;60945;48.516;-2.768;2022-12-18T10:35:49;7.53;;;4.70;;
72813;SDS011;60945;48.516;-2.768;2022-12-18T10:40:51;9.05;;;5.00;;
72813;SDS011;60945;48.516;-2.768;2022-12-18T10:43:29;6.60;;;4.40;;
72813;SDS011;60945;48.516;-2.768;2022-12-18T10:48:28;7.32;;;5.00;;
72813;SDS011;60945;48.516;-2.768;2022-12-18T10:50:56;8.48;;;4.95;;
72813;SDS011;60945;48.516;-2.768;2022-12-18T10:53:23;6.90;;;4.45;;
72813;SDS011;60945;48.516;-2.768;2022-12-18T10:55:52;7.80;;;4.82;;
72813;SDS011;60945;48.516;-2.768;2022-12-18T10:58:27;8.48;;;5.15;;
72813;SDS011;60945;48.516;-2.768;2022-12-18T11:03:43;6.35;;;4.30;;
72813;SDS011;60945;48.516;-2.768;2022-12-18T11:08:37;8.65;;;5.35;;
72813;SDS011;60945;48.516;-2.768;2022-12-18T11:11:04;8.68;;;5.15;;
72813;SDS011;60945;48.516;-2.768;2022-12-18T11:13:41;8.15;;;5.05;;
72813;SDS011;60945;48.516;-2.768;2022-12-18T11:16:19;8.57;;;4.78;;
72813;SDS011;60945;48.516;-2.768;2022-12-18T11:18:45;8.27;;;4.80;;
72813;SDS011;60945;48.516;-2.768;2022-12-18T11:21:11;8.63;;;5.60;;
72813;SDS011;60945;48.516;-2.768;2022-12-18T11:23:52;10.00;;;5.72;;
72813;SDS011;60945;48.516;-2.768;2022-12-18T11:26:18;8.60;;;5.72;;
72813;SDS011;60945;48.516;-2.768;2022-12-18T11:28:51;10.15;;;5.95;;
72813;SDS011;60945;48.516;-2.768;2022-12-18T11:31:34;11.10;;;6.68;;
72813;SDS011;60945;48.516;-2.768;2022-12-18T11:34:01;9.18;;;6.10;;
72813;SDS011;60945;48.516;-2.768;2022-12-18T11:36:33;10.52;;;6.32;;
72813;SDS011;60945;48.516;-2.768;2022-12-18T11:39:07;10.48;;;6.20;;
72813;SDS011;60945;48.516;-2.768;2022-12-18T11:41:54;9.35;;;5.70;;
72813;SDS011;60945;48.516;-2.768;2022-12-18T11:44:50;8.73;;;5.47;;
72813;SDS011;60945;48.516;-2.768;2022-12-18T11:50:05;8.98;;;4.53;;
72813;SDS011;60945;48.516;-2.768;2022-12-18T11:52:54;7.65;;;4.45;;
72813;SDS011;60945;48.516;-2.768;2022-12-18T12:00:29;8.00;;;4.97;;
72813;SDS011;60945;48.516;-2.768;2022-12-18T12:11:23;8.68;;;5.88;;
72813;SDS011;60945;48.516;-2.768;2022-12-18T12:16:37;8.68;;;5.45;;
72813;SDS011;60945;48.516;-2.768;2022-12-18T12:19:34;6.70;;;4.43;;
72813;SDS011;60945;48.516;-2.768;2022-12-18T12:28:09;5.88;;;4.53;;
72813;SDS011;60945;48.516;-2.768;2022-12-18T12:33:59;5.25;;;3.95;;
72813;SDS011;60945;48.516;-2.768;2022-12-18T12:39:25;8.43;;;4.63;;
72813;SDS011;60945;48.516;-2.768;2022-12-18T12:41:54;7.00;;;4.85;;
72813;SDS011;60945;48.516;-2.768;2022-12-18T12:44:48;7.43;;;4.78;;
72813;SDS011;60945;48.516;-2.768;2022-12-18T12:47:29;5.57;;;4.10;;
72813;SDS011;60945;48.516;-2.768;2022-12-18T12:50:02;6.93;;;4.43;;
72813;SDS011;60945;48.516;-2.768;2022-12-18T12:52:32;6.15;;;4.30;;
72813;SDS011;60945;48.516;-2.768;2022-12-18T12:55:03;8.38;;;4.75;;
72813;SDS011;60945;48.516;-2.768;2022-12-18T12:57:34;7.20;;;4.50;;
72813;SDS011;60945;48.516;-2.768;2022-12-18T13:00:07;8.02;;;4.90;;
72813;SDS011;60945;48.516;-2.768;2022-12-18T13:02:39;6.73;;;4.50;;
72813;SDS011;60945;48.516;-2.768;2022-12-18T13:05:39;6.90;;;4.45;;
72813;SDS011;60945;48.516;-2.768;2022-12-18T13:08:24;5.93;;;4.55;;
72813;SDS011;60945;48.516;-2.768;2022-12-18T13:10:58;7.25;;;4.63;;
72813;SDS011;60945;48.516;-2.768;2022-12-18T13:13:50;6.70;;;4.43;;
72813;SDS011;60945;48.516;-2.768;2022-12-18T13:16:19;9.43;;;4.03;;
72813;SDS011;60945;48.516;-2.768;2022-12-18T13:18:53;8.82;;;4.35;;
72813;SDS011;60945;48.516;-2.768;2022-12-18T13:21:27;6.30;;;4.20;;
72813;SDS011;60945;48.516;-2.768;2022-12-18T13:23:54;6.03;;;4.30;;
72813;SDS011;60945;48.516;-2.768;2022-12-18T13:28:52;6.22;;;4.10;;
72813;SDS011;60945;48.516;-2.768;2022-12-18T13:36:42;5.32;;;3.90;;
72813;SDS011;60945;48.516;-2.768;2022-12-18T13:39:09;9.02;;;5.10;;
72813;SDS011;60945;48.516;-2.768;2022-12-18T13:41:36;7.53;;;5.03;;
72813;SDS011;60945;48.516;-2.768;2022-12-18T13:44:24;7.93;;;4.90;;
72813;SDS011;60945;48.516;-2.768;2022-12-18T13:46:56;9.57;;;6.63;;
72813;SDS011;60945;48.516;-2.768;2022-12-18T13:49:25;6.55;;;4.13;;
72813;SDS011;60945;48.516;-2.768;2022-12-18T13:51:57;9.60;;;5.93;;
72813;SDS011;60945;48.516;-2.768;2022-12-18T13:57:02;6.55;;;4.63;;
72813;SDS011;60945;48.516;-2.768;2022-12-18T13:59:33;7.28;;;4.60;;
72813;SDS011;60945;48.516;-2.768;2022-12-18T14:02:15;7.03;;;4.95;;
72813;SDS011;60945;48.516;-2.768;2022-12-18T14:04:51;9.75;;;4.75;;
72813;SDS011;60945;48.516;-2.768;2022-12-18T14:07:19;7.07;;;4.82;;
72813;SDS011;60945;48.516;-2.768;2022-12-18T14:09:51;7.93;;;5.30;;
72813;SDS011;60945;48.516;-2.768;2022-12-18T14:12:24;6.35;;;4.68;;
72813;SDS011;60945;48.516;-2.768;2022-12-18T14:21:06;6.78;;;4.72;;
72813;SDS011;60945;48.516;-2.768;2022-12-18T14:23:41;6.47;;;4.60;;
72813;SDS011;60945;48.516;-2.768;2022-12-18T14:26:20;6.65;;;4.88;;
72813;SDS011;60945;48.516;-2.768;2022-12-18T14:28:52;7.13;;;4.40;;
72813;SDS011;60945;48.516;-2.768;2022-12-18T14:31:22;6.18;;;3.92;;
72813;SDS011;60945;48.516;-2.768;2022-12-18T14:33:50;7.82;;;5.53;;
72813;SDS011;60945;48.516;-2.768;2022-12-18T14:36:20;6.13;;;4.72;;
72813;SDS011;60945;48.516;-2.768;2022-12-18T14:38:51;7.93;;;4.60;;
72813;SDS011;60945;48.516;-2.768;2022-12-18T14:41:19;7.30;;;5.10;;
72813;SDS011;60945;48.516;-2.768;2022-12-18T14:43:47;7.68;;;4.47;;
72813;SDS011;60945;48.516;-2.768;2022-12-18T14:49:04;6.60;;;4.68;;
72813;SDS011;60945;48.516;-2.768;2022-12-18T14:51:44;7.30;;;4.22;;
72813;SDS011;60945;48.516;-2.768;2022-12-18T14:54:18;7.65;;;4.60;;
72813;SDS011;60945;48.516;-2.768;2022-12-18T14:56:48;6.95;;;4.30;;
72813;SDS011;60945;48.516;-2.768;2022-12-18T14:59:20;5.57;;;4.00;;
72813;SDS011;60945;48.516;-2.768;2022-12-18T15:04:38;7.28;;;3.65;;
72813;SDS011;60945;48.516;-2.768;2022-12-18T15:07:21;6.63;;;4.18;;
72813;SDS011;60945;48.516;-2.768;2022-12-18T15:12:40;4.90;;;3.40;;
72813;SDS011;60945;48.516;-2.768;2022-12-18T15:20:42;6.82;;;4.00;;
72813;SDS011;60945;48.516;-2.768;2022-12-18T15:26:01;6.95;;;4.03;;
72813;SDS011;60945;48.516;-2.768;2022-12-18T15:28:49;6.88;;;4.03;;
72813;SDS011;60945;48.516;-2.768;2022-12-18T15:36:19;6.15;;;3.75;;
72813;SDS011;60945;48.516;-2.768;2022-12-18T15:38:47;5.43;;;3.47;;
72813;SDS011;60945;48.516;-2.768;2022-12-18T15:41:14;5.80;;;3.65;;
72813;SDS011;60945;48.516;-2.768;2022-12-18T15:43:41;9.07;;;4.53;;
72813;SDS011;60945;48.516;-2.768;2022-12-18T15:46:11;4.90;;;3.60;;
72813;SDS011;60945;48.516;-2.768;2022-12-18T15:48:40;6.75;;;3.63;;
72813;SDS011;60945;48.516;-2.768;2022-12-18T15:51:10;6.35;;;3.75;;
72813;SDS011;60945;48.516;-2.768;2022-12-18T15:53:40;4.55;;;2.85;;
72813;SDS011;60945;48.516;-2.768;2022-12-18T15:56:13;4.35;;;3.28;;
72813;SDS011;60945;48.516;-2.768;2022-12-18T15:58:58;6.80;;;4.32;;
72813;SDS011;60945;48.516;-2.768;2022-12-18T16:01:25;6.25;;;3.42;;
72813;SDS011;60945;48.516;-2.768;2022-12-18T16:03:52;6.15;;;3.70;;
72813;SDS011;60945;48.516;-2.768;2022-12-18T16:06:19;6.70;;;3.90;;
72813;SDS011;60945;48.516;-2.768;2022-12-18T16:08:45;5.95;;;3.42;;
72813;SDS011;60945;48.516;-2.768;2022-12-18T16:11:20;4.68;;;3.35;;
72813;SDS011;60945;48.516;-2.768;2022-12-18T16:16:59;4.80;;;2.38;;
72813;SDS011;60945;48.516;-2.768;2022-12-18T16:19:26;9.55;;;3.28;;
72813;SDS011;60945;48.516;-2.768;2022-12-18T16:21:55;6.22;;;3.03;;
72813;SDS011;60945;48.516;-2.768;2022-12-18T16:24:23;7.82;;;3.08;;
72813;SDS011;60945;48.516;-2.768;2022-12-18T16:26:50;11.55;;;4.10;;
72813;SDS011;60945;48.516;-2.768;2022-12-18T16:29:17;6.45;;;2.92;;
72813;SDS011;60945;48.516;-2.768;2022-12-18T16:31:43;5.65;;;2.90;;
72813;SDS011;60945;48.516;-2.768;2022-12-18T16:34:10;5.28;;;2.80;;
72813;SDS011;60945;48.516;-2.768;2022-12-18T16:36:42;5.80;;;3.17;;
72813;SDS011;60945;48.516;-2.768;2022-12-18T16:39:08;4.55;;;2.25;;
72813;SDS011;60945;48.516;-2.768;2022-12-18T16:41:33;8.57;;;3.33;;
72813;SDS011;60945;48.516;-2.768;2022-12-18T16:44:00;4.78;;;1.88;;